createdAt,value
2018-04-17T00:00:48.289Z,101265.89
2018-04-17T00:03:15.782Z,101271.13
2018-04-17T00:05:43.285Z,101290.73
2018-04-17T00:08:10.770Z,101275.47
2018-04-17T00:10:39.903Z,101262.77
2018-04-17T00:13:08.055Z,101285.05
2018-04-17T00:15:36.671Z,101273.73
2018-04-17T00:18:05.519Z,101279.77
2018-04-17T00:20:33.014Z,101277.58
2018-04-17T00:23:00.494Z,101282.34
2018-04-17T00:25:28.014Z,101291.05
2018-04-17T00:27:56.658Z,101284.94
2018-04-17T00:30:27.121Z,101301.93
2018-04-17T00:32:55.821Z,101308.44
2018-04-17T00:35:24.466Z,101298.44
2018-04-17T00:37:51.980Z,101301.02
2018-04-17T00:40:19.488Z,101306.70
2018-04-17T00:42:46.973Z,101312.82
2018-04-17T00:45:18.864Z,101292.78
2018-04-17T00:47:50.881Z,101287.13
2018-04-17T00:50:22.749Z,101293.20
2018-04-17T00:52:54.619Z,101284.51
2018-04-17T00:55:22.107Z,101285.42
2018-04-17T00:57:49.565Z,101277.52
2018-04-17T01:00:17.077Z,101276.27
2018-04-17T01:02:44.581Z,101254.52
2018-04-17T01:05:12.063Z,101246.25
2018-04-17T01:07:51.996Z,101262.83
2018-04-17T01:10:20.236Z,101276.33
2018-04-17T01:12:47.726Z,101243.64
2018-04-17T01:15:15.239Z,101256.74
2018-04-17T01:17:42.738Z,101236.31
2018-04-17T01:20:11.190Z,101243.70
2018-04-17T01:22:39.794Z,101252.00
2018-04-17T01:25:08.614Z,101247.65
2018-04-17T01:30:07.982Z,101267.75
2018-04-17T01:32:35.474Z,101266.92
2018-04-17T01:35:02.946Z,101270.42
2018-04-17T01:37:36.465Z,101265.62
2018-04-17T01:40:06.818Z,101268.66
2018-04-17T01:42:38.459Z,101284.77
2018-04-17T01:45:10.263Z,101269.97
2018-04-17T01:47:37.749Z,101256.01
2018-04-17T01:50:05.250Z,101274.77
2018-04-17T01:52:32.758Z,101277.81
2018-04-17T01:55:00.487Z,101253.42
2018-04-17T02:00:03.475Z,101277.81
2018-04-17T02:02:36.298Z,101285.20
2018-04-17T02:05:03.818Z,101284.75
2018-04-17T02:07:31.284Z,101271.19
2018-04-17T02:09:58.778Z,101281.13
2018-04-17T02:12:27.590Z,101273.71
2018-04-17T02:15:00.523Z,101264.56
2018-04-17T02:17:30.725Z,101265.38
2018-04-17T02:20:02.850Z,101281.07
2018-04-17T02:22:30.350Z,101281.07
2018-04-17T02:24:57.846Z,101268.84
2018-04-17T02:27:25.367Z,101276.69
2018-04-17T02:29:54.174Z,101254.09
2018-04-17T02:35:34.156Z,101261.52
2018-04-17T02:38:01.662Z,101264.06
2018-04-17T02:40:29.223Z,101263.31
2018-04-17T02:42:56.743Z,101261.97
2018-04-17T02:45:24.280Z,101248.47
2018-04-17T02:47:55.551Z,101245.83
2018-04-17T02:50:39.094Z,101244.13
2018-04-17T02:53:18.012Z,101249.81
2018-04-17T02:55:47.814Z,101241.93
2018-04-17T02:58:15.352Z,101246.31
2018-04-17T03:00:42.866Z,101226.34
2018-04-17T03:03:10.459Z,101234.18
2018-04-17T03:05:51.203Z,101234.20
2018-04-17T03:14:03.225Z,101219.52
2018-04-17T03:16:30.760Z,101217.39
2018-04-17T03:18:58.376Z,101224.78
2018-04-17T03:21:30.485Z,101230.44
2018-04-17T03:30:04.947Z,101243.97
2018-04-17T03:32:33.335Z,101247.55
2018-04-17T03:35:00.902Z,101235.76
2018-04-17T03:37:28.535Z,101238.70
2018-04-17T03:40:18.380Z,101209.52
2018-04-17T03:45:35.070Z,101232.96
2018-04-17T03:48:02.608Z,101222.02
2018-04-17T03:50:30.110Z,101225.48
2018-04-17T03:52:57.590Z,101230.14
2018-04-17T03:55:25.696Z,101220.92
2018-04-17T04:04:25.538Z,101221.77
2018-04-17T04:06:53.068Z,101224.36
2018-04-17T04:09:20.575Z,101208.64
2018-04-17T04:11:48.192Z,101213.80
2018-04-17T04:21:50.674Z,101190.66
2018-04-17T04:24:30.151Z,101196.32
2018-04-17T04:26:57.699Z,101201.00
2018-04-17T04:29:25.314Z,101186.62
2018-04-17T04:34:49.173Z,101200.55
2018-04-17T04:37:26.525Z,101209.67
2018-04-17T04:39:54.083Z,101188.29
2018-04-17T04:42:21.627Z,101199.99
2018-04-17T04:44:49.149Z,101199.14
2018-04-17T04:56:03.815Z,101227.33
2018-04-17T04:58:31.331Z,101225.14
2018-04-17T05:00:58.871Z,101234.30
2018-04-17T05:03:26.516Z,101226.45
2018-04-17T05:10:34.927Z,101249.96
2018-04-17T05:15:50.731Z,101250.09
2018-04-17T05:18:21.297Z,101251.06
2018-04-17T05:20:48.835Z,101245.16
2018-04-17T05:33:53.778Z,101260.28
2018-04-17T05:36:21.295Z,101274.35
2018-04-17T05:38:48.878Z,101266.69
2018-04-17T05:41:42.873Z,101278.14
2018-04-17T05:47:32.043Z,101286.52
2018-04-17T05:49:59.572Z,101280.90
2018-04-17T05:52:27.176Z,101291.78
2018-04-17T05:54:54.967Z,101285.61
2018-04-17T05:57:22.627Z,101290.53
2018-04-17T05:59:51.167Z,101296.75
2018-04-17T06:02:27.117Z,101294.56
2018-04-17T06:07:44.221Z,101291.22
2018-04-17T06:10:11.740Z,101301.76
2018-04-17T06:12:39.301Z,101283.21
2018-04-17T06:20:17.066Z,101315.65
2018-04-17T06:25:25.798Z,101306.67
2018-04-17T06:27:53.307Z,101316.76
2018-04-17T06:30:20.799Z,101320.39
2018-04-17T06:32:51.155Z,101325.76
2018-04-17T06:35:25.095Z,101329.36
2018-04-17T06:37:52.658Z,101326.30
2018-04-17T06:42:53.721Z,101328.24
2018-04-17T06:45:21.247Z,101330.06
2018-04-17T06:47:48.751Z,101334.01
2018-04-17T06:50:16.328Z,101337.16
2018-04-17T06:52:47.424Z,101342.84
2018-04-17T06:58:44.790Z,101336.45
2018-04-17T07:01:12.308Z,101340.36
2018-04-17T07:03:39.794Z,101340.42
2018-04-17T07:06:07.287Z,101333.14
2018-04-17T07:13:47.846Z,101344.95
2018-04-17T07:16:15.454Z,101347.97
2018-04-17T07:18:42.942Z,101336.23
2018-04-17T07:21:10.567Z,101337.97
2018-04-17T07:23:38.067Z,101344.47
2018-04-17T07:26:07.238Z,101340.47
2018-04-17T07:28:34.770Z,101344.70
2018-04-17T07:31:06.332Z,101341.11
2018-04-17T07:33:33.826Z,101351.98
2018-04-17T07:36:01.331Z,101364.50
2018-04-17T07:38:28.923Z,101354.88
2018-04-17T07:40:56.550Z,101358.23
2018-04-17T07:43:43.244Z,101370.73
2018-04-17T07:46:20.093Z,101358.39
2018-04-17T07:48:54.647Z,101359.16
2018-04-17T07:51:22.130Z,101361.75
2018-04-17T07:53:49.660Z,101374.00
2018-04-17T07:56:17.202Z,101371.88
2018-04-17T07:58:45.455Z,101377.55
2018-04-17T08:01:13.070Z,101377.59
2018-04-17T08:03:43.124Z,101384.20
2018-04-17T08:06:12.623Z,101386.81
2018-04-17T08:08:40.121Z,101389.42
2018-04-17T08:11:07.654Z,101395.53
2018-04-17T08:13:35.231Z,101397.66
2018-04-17T08:16:02.830Z,101390.67
2018-04-17T08:24:27.584Z,101405.76
2018-04-17T08:26:55.164Z,101407.84
2018-04-17T08:29:22.692Z,101406.48
2018-04-17T08:31:50.338Z,101417.25
2018-04-17T08:43:02.561Z,101423.11
2018-04-17T08:45:30.125Z,101422.14
2018-04-17T08:47:58.506Z,101430.73
2018-04-17T08:59:32.366Z,101434.61
2018-04-17T09:02:00.039Z,101440.13
2018-04-17T09:04:27.699Z,101436.03
2018-04-17T09:06:56.600Z,101450.39
2018-04-17T09:18:33.287Z,101453.44
2018-04-17T09:21:02.777Z,101458.61
2018-04-17T09:23:30.353Z,101465.89
2018-04-17T09:35:18.156Z,101468.00
2018-04-17T09:37:46.762Z,101477.92
2018-04-17T09:40:14.349Z,101489.58
2018-04-17T09:51:51.972Z,101497.13
2018-04-17T09:54:19.551Z,101504.86
2018-04-17T09:56:47.165Z,101509.13
2018-04-17T10:08:23.647Z,101501.25
2018-04-17T10:10:51.252Z,101509.92
2018-04-17T10:13:18.835Z,101518.14
2018-04-17T10:24:56.771Z,101527.50
2018-04-17T10:27:24.381Z,101534.44
2018-04-17T10:29:52.063Z,101545.67
2018-04-17T10:41:46.477Z,101543.23
2018-04-17T10:44:14.059Z,101554.53
2018-04-17T10:46:41.703Z,101562.38
2018-04-17T10:49:12.273Z,101554.90
2018-04-17T11:00:49.071Z,101581.36
2018-04-17T11:03:16.663Z,101590.94
2018-04-17T11:05:44.229Z,101589.61
2018-04-17T11:17:20.649Z,101607.79
2018-04-17T11:19:48.232Z,101612.11
2018-04-17T11:22:15.871Z,101607.73
2018-04-17T11:36:40.406Z,101615.31
2018-04-17T11:39:15.154Z,101602.11
2018-04-17T12:09:21.548Z,101643.18
2018-04-17T13:02:14.211Z,101688.50
2018-04-17T14:26:37.385Z,101745.38
2018-04-17T15:50:28.992Z,101803.73
2018-04-17T15:52:58.250Z,101810.27
2018-04-17T15:55:28.326Z,101806.73
2018-04-17T16:10:27.461Z,101810.18
2018-04-17T16:12:55.153Z,101808.47
2018-04-17T16:24:30.941Z,101821.72
2018-04-17T16:26:58.649Z,101816.70
2018-04-17T16:29:26.359Z,101817.56
2018-04-17T16:58:55.677Z,101842.64
2018-04-17T20:58:03.291Z,102110.07
2018-04-17T21:00:30.843Z,102111.31
2018-04-17T21:02:59.447Z,102109.51
2018-04-17T21:05:32.144Z,102109.45
2018-04-17T21:08:12.385Z,102112.48
2018-04-17T21:10:41.113Z,102107.67
2018-04-17T21:13:08.804Z,102113.74
2018-04-17T21:15:36.339Z,102113.74
2018-04-17T21:18:04.015Z,102119.36
2018-04-17T21:20:31.640Z,102125.89
2018-04-17T21:26:01.958Z,102132.79
2018-04-17T21:28:31.377Z,102138.45
2018-04-17T21:30:58.963Z,102140.62
2018-04-17T21:33:26.507Z,102141.05
2018-04-17T21:35:54.079Z,102141.94
2018-04-17T21:38:21.667Z,102147.63
2018-04-17T21:43:28.717Z,102152.45
2018-04-17T21:48:30.576Z,102163.01
2018-04-17T21:50:58.206Z,102163.89
2018-04-17T21:53:25.756Z,102168.75
2018-04-17T21:55:53.704Z,102174.87
2018-04-17T21:58:23.213Z,102172.72
2018-04-17T22:00:53.290Z,102173.22
2018-04-17T22:06:33.007Z,102176.74
2018-04-17T22:09:00.556Z,102172.85
2018-04-17T22:11:28.169Z,102178.58
2018-04-17T22:13:59.178Z,102176.00
2018-04-17T22:16:31.156Z,102172.09
2018-04-17T22:21:36.095Z,102189.19
2018-04-17T22:24:03.711Z,102181.83
2018-04-17T22:26:32.373Z,102187.52
2018-04-17T22:28:59.929Z,102187.09
2018-04-17T22:31:36.129Z,102187.11
2018-04-17T22:37:17.084Z,102192.34
2018-04-17T22:39:44.654Z,102187.13
2018-04-17T22:42:12.183Z,102191.11
2018-04-17T22:44:39.770Z,102196.81
2018-04-17T22:47:07.436Z,102190.72
2018-04-17T22:49:39.016Z,102182.00
2018-04-17T22:52:11.066Z,102193.39
2018-04-17T22:54:43.372Z,102194.72
2018-04-17T22:57:11.075Z,102202.13
2018-04-17T22:59:38.643Z,102201.71
2018-04-17T23:02:06.217Z,102201.69
2018-04-17T23:04:33.751Z,102198.63
2018-04-17T23:15:47.829Z,102206.48
2018-04-17T23:18:15.501Z,102209.50
2018-04-17T23:20:43.078Z,102206.07
2018-04-17T23:31:12.247Z,102214.28
2018-04-17T23:33:39.907Z,102214.72
2018-04-17T23:36:07.455Z,102213.81
2018-04-17T23:38:35.032Z,102216.86
2018-04-17T23:43:56.369Z,102215.48
2018-04-17T23:49:12.058Z,102220.70
2018-04-17T23:51:39.623Z,102222.81
2018-04-17T23:54:07.205Z,102226.34
2018-04-17T23:56:35.813Z,102233.29
